Aeroporto :
LOGIN :

Iscrizione | Disclaimer

   EN    FR    IT 

 










Sommario :    VFR   VFR Marginale   IFR   IFR Intensivo   IFR Molto Intensivo
Visibilità : 
Base nubi : 
>= 8 km
>= 3000ft
5 / 8 km
1000 / 3000 ft
1500m / 5 km
500 / 1000 ft
800 / 1500m
200 / 500 ft
< 800m
< 200 ft
Simboli :   Temporali  Nebbia  Neve Forte  Precipitazioni Forti  Vento > 20 kt
SIGMETs :   Varie  Temporali  Ghiacco  Turbolenza  Onda orograficha  Ceneri Vulcaniche






- Altitudine del aeroporto : 1046 ft
- Codice IATA : NUE


EDDN - Nuremberg

ULTIMO METAR :
  • 220420Z 32003KT 9999 BCFG NSC 17/16 Q1011 NOSIG

METARs OBSOLETI :
  • 220350Z 26005KT 9999 1500E R28/0175V0650D BCFG NSC 16/16 Q1011
  • 220320Z VRB01KT 9999 1800SE R28/1100D BCFG NSC 16/16 Q1011
  • 220250Z VRB01KT 9999 2000E R28/1000U BCFG NSC 17/16 Q1011
  • 220220Z 21001KT 9999 2500E R28/1200U BCFG NSC 17/17 Q1011
  • 220150Z 16002KT 9999 BCFG NSC 17/17 Q1011

TAF TAF EDDN
Valido dal 22 a 00 ore il 23 a 00 ore UTC


212300Z 2200/2224 VRB03KT 9999 BKN040
PROB30
TEMPO 2200/2203 19020G45KT TSRA BKN050CB
PROB30
TEMPO 2216/2224 27020G35KT 4000 TSRA BKN025CB



MetMap, La meteo Aeronautica in un colpo d'occhio ! - Copyright ORBIFLY Dicembre 2007 - Disclaimer

ORBIFLY MET'MAP TEAM :

Programmazione e sviluppo : Alexandra Zaïnal
Concezione : Baudouin d'Aumeries
Aiuto per la programmazione : Marc-Olivier Méhu
Supporto tecnico e logistico : Manuel Goepfert
Aiuto per la traduzione : Arnaldo La Scala

Contatto : metmap@orbifly.com




FONTI E CREDITI :

   NOAA